Terminal Aerodrome Forecast
Issued by NWS

Home | Current Version | Previous Version | Text Only | Print | Product List | Glossary On
Versions: 1 2 3 4 5 6 7 8 9 10 11 12 13 14 15 16 17 18 19 20
000
FTUS41 KBTV 221720
TAFMPV
TAF
KMPV 221720Z 2218/2318 35008KT P6SM VCSH SCT008 BKN020 OVC030
      TEMPO 2218/2222 4SM -SHRA BKN015
     FM230000 34009KT 6SM -DZ BR SCT008 OVC015
     FM230600 33010KT 3SM -RA BR OVC005=

USA.gov is the U.S. government's official web portal to all federal, state and local government web resources and services.